sensor_id;sensor_type;location;lat;lon;timestamp;P1;durP1;ratioP1;P2;durP2;ratioP2
6177;SDS011;3122;48.208;11.174;2022-10-16T00:02:58;2.73;;;2.30;;
6177;SDS011;3122;48.208;11.174;2022-10-16T00:07:59;2.70;;;2.50;;
6177;SDS011;3122;48.208;11.174;2022-10-16T00:13:00;2.70;;;2.50;;
6177;SDS011;3122;48.208;11.174;2022-10-16T00:18:01;4.30;;;2.60;;
6177;SDS011;3122;48.208;11.174;2022-10-16T00:23:02;6.17;;;2.27;;
6177;SDS011;3122;48.208;11.174;2022-10-16T00:28:03;3.80;;;2.33;;
6177;SDS011;3122;48.208;11.174;2022-10-16T00:33:04;3.00;;;2.63;;
6177;SDS011;3122;48.208;11.174;2022-10-16T00:38:04;3.27;;;2.10;;
6177;SDS011;3122;48.208;11.174;2022-10-16T00:43:32;2.37;;;2.17;;
6177;SDS011;3122;48.208;11.174;2022-10-16T00:48:34;2.90;;;2.33;;
6177;SDS011;3122;48.208;11.174;2022-10-16T00:53:35;3.00;;;2.80;;
6177;SDS011;3122;48.208;11.174;2022-10-16T00:58:37;2.90;;;2.70;;
6177;SDS011;3122;48.208;11.174;2022-10-16T01:03:37;3.23;;;2.33;;
6177;SDS011;3122;48.208;11.174;2022-10-16T01:08:46;6.37;;;2.30;;
6177;SDS011;3122;48.208;11.174;2022-10-16T01:14:06;2.37;;;2.27;;
6177;SDS011;3122;48.208;11.174;2022-10-16T01:19:31;3.90;;;2.23;;
6177;SDS011;3122;48.208;11.174;2022-10-16T01:24:43;2.37;;;2.27;;
6177;SDS011;3122;48.208;11.174;2022-10-16T01:34:54;2.47;;;2.37;;
6177;SDS011;3122;48.208;11.174;2022-10-16T01:40:00;2.20;;;2.10;;
6177;SDS011;3122;48.208;11.174;2022-10-16T01:45:04;2.47;;;2.23;;
6177;SDS011;3122;48.208;11.174;2022-10-16T01:50:07;2.37;;;2.17;;
6177;SDS011;3122;48.208;11.174;2022-10-16T01:55:08;3.30;;;2.70;;
6177;SDS011;3122;48.208;11.174;2022-10-16T02:00:12;2.30;;;2.10;;
6177;SDS011;3122;48.208;11.174;2022-10-16T02:05:16;2.10;;;2.00;;
6177;SDS011;3122;48.208;11.174;2022-10-16T02:10:22;2.33;;;2.13;;
6177;SDS011;3122;48.208;11.174;2022-10-16T02:15:23;2.10;;;2.00;;
6177;SDS011;3122;48.208;11.174;2022-10-16T02:20:27;2.00;;;1.90;;
6177;SDS011;3122;48.208;11.174;2022-10-16T02:25:36;2.67;;;2.47;;
6177;SDS011;3122;48.208;11.174;2022-10-16T02:31:23;2.33;;;1.90;;
6177;SDS011;3122;48.208;11.174;2022-10-16T02:36:08;2.10;;;2.00;;
6177;SDS011;3122;48.208;11.174;2022-10-16T02:41:09;2.47;;;2.27;;
6177;SDS011;3122;48.208;11.174;2022-10-16T02:46:09;4.80;;;2.10;;
6177;SDS011;3122;48.208;11.174;2022-10-16T02:51:10;2.67;;;2.47;;
6177;SDS011;3122;48.208;11.174;2022-10-16T02:56:10;2.60;;;2.40;;
6177;SDS011;3122;48.208;11.174;2022-10-16T03:01:11;5.63;;;2.20;;
6177;SDS011;3122;48.208;11.174;2022-10-16T03:06:12;2.33;;;2.10;;
6177;SDS011;3122;48.208;11.174;2022-10-16T03:11:13;2.20;;;2.07;;
6177;SDS011;3122;48.208;11.174;2022-10-16T03:16:13;3.07;;;2.30;;
6177;SDS011;3122;48.208;11.174;2022-10-16T03:21:14;2.80;;;2.43;;
6177;SDS011;3122;48.208;11.174;2022-10-16T03:26:15;2.07;;;1.97;;
6177;SDS011;3122;48.208;11.174;2022-10-16T03:31:15;2.60;;;2.40;;
6177;SDS011;3122;48.208;11.174;2022-10-16T03:36:16;3.00;;;2.80;;
6177;SDS011;3122;48.208;11.174;2022-10-16T03:41:17;2.90;;;2.70;;
6177;SDS011;3122;48.208;11.174;2022-10-16T03:46:17;2.87;;;2.67;;
6177;SDS011;3122;48.208;11.174;2022-10-16T03:51:18;3.80;;;2.30;;
6177;SDS011;3122;48.208;11.174;2022-10-16T03:56:18;5.03;;;2.63;;
6177;SDS011;3122;48.208;11.174;2022-10-16T04:01:19;2.73;;;2.40;;
6177;SDS011;3122;48.208;11.174;2022-10-16T04:06:19;7.00;;;2.87;;
6177;SDS011;3122;48.208;11.174;2022-10-16T04:11:20;2.30;;;2.10;;
6177;SDS011;3122;48.208;11.174;2022-10-16T04:16:20;2.67;;;2.47;;
6177;SDS011;3122;48.208;11.174;2022-10-16T04:21:21;5.57;;;2.70;;
6177;SDS011;3122;48.208;11.174;2022-10-16T04:26:22;5.30;;;2.67;;
6177;SDS011;3122;48.208;11.174;2022-10-16T04:31:22;4.17;;;3.00;;
6177;SDS011;3122;48.208;11.174;2022-10-16T04:36:23;3.07;;;2.43;;
6177;SDS011;3122;48.208;11.174;2022-10-16T04:41:24;2.87;;;2.67;;
6177;SDS011;3122;48.208;11.174;2022-10-16T04:46:24;2.77;;;2.57;;
6177;SDS011;3122;48.208;11.174;2022-10-16T04:51:25;2.43;;;2.33;;
6177;SDS011;3122;48.208;11.174;2022-10-16T04:56:26;2.57;;;2.40;;
6177;SDS011;3122;48.208;11.174;2022-10-16T05:01:26;3.50;;;3.20;;
6177;SDS011;3122;48.208;11.174;2022-10-16T05:06:27;2.87;;;2.57;;
6177;SDS011;3122;48.208;11.174;2022-10-16T05:11:27;2.60;;;2.40;;
6177;SDS011;3122;48.208;11.174;2022-10-16T05:16:28;3.47;;;2.70;;
6177;SDS011;3122;48.208;11.174;2022-10-16T05:21:30;3.40;;;3.10;;
6177;SDS011;3122;48.208;11.174;2022-10-16T05:26:31;3.53;;;3.20;;
6177;SDS011;3122;48.208;11.174;2022-10-16T05:31:31;3.40;;;2.73;;
6177;SDS011;3122;48.208;11.174;2022-10-16T05:36:32;5.33;;;2.70;;
6177;SDS011;3122;48.208;11.174;2022-10-16T05:41:32;2.80;;;2.60;;
6177;SDS011;3122;48.208;11.174;2022-10-16T05:46:33;3.30;;;2.77;;
6177;SDS011;3122;48.208;11.174;2022-10-16T05:51:34;3.83;;;2.90;;
6177;SDS011;3122;48.208;11.174;2022-10-16T05:56:34;3.30;;;3.00;;
6177;SDS011;3122;48.208;11.174;2022-10-16T06:01:35;3.30;;;3.00;;
6177;SDS011;3122;48.208;11.174;2022-10-16T06:06:35;2.60;;;2.40;;
6177;SDS011;3122;48.208;11.174;2022-10-16T06:11:36;6.00;;;4.67;;
6177;SDS011;3122;48.208;11.174;2022-10-16T06:16:37;4.57;;;4.10;;
6177;SDS011;3122;48.208;11.174;2022-10-16T06:21:38;7.37;;;5.63;;
6177;SDS011;3122;48.208;11.174;2022-10-16T06:26:38;9.33;;;7.23;;
6177;SDS011;3122;48.208;11.174;2022-10-16T06:31:39;9.03;;;7.13;;
6177;SDS011;3122;48.208;11.174;2022-10-16T06:36:40;7.00;;;5.10;;
6177;SDS011;3122;48.208;11.174;2022-10-16T06:41:41;7.03;;;5.63;;
6177;SDS011;3122;48.208;11.174;2022-10-16T06:46:41;7.90;;;5.70;;
6177;SDS011;3122;48.208;11.174;2022-10-16T06:51:42;6.03;;;4.90;;
6177;SDS011;3122;48.208;11.174;2022-10-16T06:56:43;6.23;;;4.20;;
6177;SDS011;3122;48.208;11.174;2022-10-16T07:01:43;6.00;;;4.70;;
6177;SDS011;3122;48.208;11.174;2022-10-16T07:06:44;5.40;;;4.40;;
6177;SDS011;3122;48.208;11.174;2022-10-16T07:11:44;8.90;;;4.40;;
6177;SDS011;3122;48.208;11.174;2022-10-16T07:16:45;6.33;;;4.93;;
6177;SDS011;3122;48.208;11.174;2022-10-16T07:21:46;3.90;;;3.60;;
6177;SDS011;3122;48.208;11.174;2022-10-16T07:26:47;4.37;;;3.83;;
6177;SDS011;3122;48.208;11.174;2022-10-16T07:31:48;3.80;;;3.50;;
6177;SDS011;3122;48.208;11.174;2022-10-16T07:36:49;3.80;;;3.40;;
6177;SDS011;3122;48.208;11.174;2022-10-16T07:41:50;4.00;;;3.60;;
6177;SDS011;3122;48.208;11.174;2022-10-16T07:46:51;3.70;;;3.40;;
6177;SDS011;3122;48.208;11.174;2022-10-16T07:51:51;4.40;;;3.30;;
6177;SDS011;3122;48.208;11.174;2022-10-16T07:56:52;4.13;;;3.70;;
6177;SDS011;3122;48.208;11.174;2022-10-16T08:01:52;4.00;;;3.60;;
6177;SDS011;3122;48.208;11.174;2022-10-16T08:06:53;4.83;;;3.20;;
6177;SDS011;3122;48.208;11.174;2022-10-16T08:11:54;3.93;;;3.63;;
6177;SDS011;3122;48.208;11.174;2022-10-16T08:16:54;3.90;;;3.60;;
6177;SDS011;3122;48.208;11.174;2022-10-16T08:21:55;3.37;;;3.07;;
6177;SDS011;3122;48.208;11.174;2022-10-16T08:26:55;3.43;;;3.13;;
6177;SDS011;3122;48.208;11.174;2022-10-16T08:31:56;3.70;;;2.83;;
6177;SDS011;3122;48.208;11.174;2022-10-16T08:36:57;4.17;;;3.13;;
6177;SDS011;3122;48.208;11.174;2022-10-16T08:42:01;3.50;;;3.20;;
6177;SDS011;3122;48.208;11.174;2022-10-16T08:47:25;3.33;;;3.03;;
6177;SDS011;3122;48.208;11.174;2022-10-16T08:52:35;3.20;;;2.90;;
6177;SDS011;3122;48.208;11.174;2022-10-16T08:57:40;4.10;;;2.93;;
6177;SDS011;3122;48.208;11.174;2022-10-16T09:02:43;4.30;;;3.00;;
6177;SDS011;3122;48.208;11.174;2022-10-16T09:07:55;3.30;;;3.00;;
6177;SDS011;3122;48.208;11.174;2022-10-16T09:13:48;5.50;;;2.40;;
6177;SDS011;3122;48.208;11.174;2022-10-16T09:19:01;4.23;;;2.97;;
6177;SDS011;3122;48.208;11.174;2022-10-16T09:24:14;5.20;;;3.03;;
6177;SDS011;3122;48.208;11.174;2022-10-16T09:29:20;3.07;;;2.70;;
6177;SDS011;3122;48.208;11.174;2022-10-16T09:39:48;3.73;;;2.70;;
6177;SDS011;3122;48.208;11.174;2022-10-16T09:44:52;2.67;;;2.47;;
6177;SDS011;3122;48.208;11.174;2022-10-16T09:49:55;2.70;;;2.23;;
6177;SDS011;3122;48.208;11.174;2022-10-16T09:54:57;2.63;;;2.43;;
6177;SDS011;3122;48.208;11.174;2022-10-16T10:00:16;2.50;;;2.40;;
6177;SDS011;3122;48.208;11.174;2022-10-16T10:05:18;4.20;;;2.77;;
6177;SDS011;3122;48.208;11.174;2022-10-16T10:10:26;3.33;;;2.20;;
6177;SDS011;3122;48.208;11.174;2022-10-16T10:15:32;2.97;;;2.13;;
6177;SDS011;3122;48.208;11.174;2022-10-16T10:20:35;2.63;;;2.27;;
6177;SDS011;3122;48.208;11.174;2022-10-16T10:36:04;3.90;;;2.60;;
6177;SDS011;3122;48.208;11.174;2022-10-16T10:57:02;2.23;;;2.13;;
6177;SDS011;3122;48.208;11.174;2022-10-16T11:02:23;5.67;;;2.70;;
6177;SDS011;3122;48.208;11.174;2022-10-16T11:07:52;1.97;;;1.87;;
6177;SDS011;3122;48.208;11.174;2022-10-16T11:12:59;6.07;;;1.90;;
6177;SDS011;3122;48.208;11.174;2022-10-16T11:18:49;1.60;;;1.50;;
6177;SDS011;3122;48.208;11.174;2022-10-16T11:29:02;2.43;;;1.70;;
6177;SDS011;3122;48.208;11.174;2022-10-16T11:34:10;2.93;;;1.60;;
6177;SDS011;3122;48.208;11.174;2022-10-16T11:39:27;2.47;;;1.87;;
6177;SDS011;3122;48.208;11.174;2022-10-16T11:49:49;1.43;;;1.40;;
6177;SDS011;3122;48.208;11.174;2022-10-16T12:11:52;2.67;;;2.00;;
6177;SDS011;3122;48.208;11.174;2022-10-16T12:16:27;1.70;;;1.60;;
6177;SDS011;3122;48.208;11.174;2022-10-16T12:21:30;1.73;;;1.63;;
6177;SDS011;3122;48.208;11.174;2022-10-16T12:26:32;1.80;;;1.70;;
6177;SDS011;3122;48.208;11.174;2022-10-16T12:31:36;1.77;;;1.67;;
6177;SDS011;3122;48.208;11.174;2022-10-16T12:36:43;1.80;;;1.70;;
6177;SDS011;3122;48.208;11.174;2022-10-16T12:41:44;1.27;;;1.27;;
6177;SDS011;3122;48.208;11.174;2022-10-16T12:46:44;1.50;;;1.40;;
6177;SDS011;3122;48.208;11.174;2022-10-16T12:51:45;1.40;;;1.30;;
6177;SDS011;3122;48.208;11.174;2022-10-16T13:18:12;1.23;;;1.13;;
6177;SDS011;3122;48.208;11.174;2022-10-16T13:23:27;2.90;;;1.20;;
6177;SDS011;3122;48.208;11.174;2022-10-16T13:28:30;5.10;;;1.37;;
6177;SDS011;3122;48.208;11.174;2022-10-16T13:33:34;1.97;;;1.77;;
6177;SDS011;3122;48.208;11.174;2022-10-16T13:38:37;1.40;;;1.30;;
6177;SDS011;3122;48.208;11.174;2022-10-16T13:43:39;2.00;;;1.30;;
6177;SDS011;3122;48.208;11.174;2022-10-16T13:48:55;1.70;;;1.60;;
6177;SDS011;3122;48.208;11.174;2022-10-16T13:54:00;1.37;;;1.27;;
6177;SDS011;3122;48.208;11.174;2022-10-16T13:59:01;1.50;;;1.40;;
6177;SDS011;3122;48.208;11.174;2022-10-16T14:04:21;2.03;;;1.50;;
6177;SDS011;3122;48.208;11.174;2022-10-16T14:09:24;2.13;;;1.20;;
6177;SDS011;3122;48.208;11.174;2022-10-16T14:14:43;1.30;;;1.20;;
6177;SDS011;3122;48.208;11.174;2022-10-16T14:19:46;1.43;;;1.33;;
6177;SDS011;3122;48.208;11.174;2022-10-16T14:24:48;1.27;;;1.17;;
6177;SDS011;3122;48.208;11.174;2022-10-16T14:29:48;2.80;;;1.10;;
6177;SDS011;3122;48.208;11.174;2022-10-16T14:34:53;3.90;;;1.17;;
6177;SDS011;3122;48.208;11.174;2022-10-16T14:39:55;1.87;;;1.20;;
6177;SDS011;3122;48.208;11.174;2022-10-16T14:44:56;1.43;;;1.33;;
6177;SDS011;3122;48.208;11.174;2022-10-16T14:49:57;1.30;;;1.20;;
6177;SDS011;3122;48.208;11.174;2022-10-16T14:54:59;2.00;;;1.90;;
6177;SDS011;3122;48.208;11.174;2022-10-16T15:00:00;1.73;;;1.50;;
6177;SDS011;3122;48.208;11.174;2022-10-16T15:05:02;1.50;;;1.40;;
6177;SDS011;3122;48.208;11.174;2022-10-16T15:10:12;4.40;;;2.93;;
6177;SDS011;3122;48.208;11.174;2022-10-16T15:20:24;8.03;;;4.07;;
6177;SDS011;3122;48.208;11.174;2022-10-16T15:25:32;3.70;;;3.40;;
6177;SDS011;3122;48.208;11.174;2022-10-16T15:30:42;4.10;;;3.80;;
6177;SDS011;3122;48.208;11.174;2022-10-16T15:35:47;25.90;;;23.30;;
6177;SDS011;3122;48.208;11.174;2022-10-16T15:40:48;12.80;;;11.60;;
6177;SDS011;3122;48.208;11.174;2022-10-16T15:46:02;4.10;;;3.80;;
6177;SDS011;3122;48.208;11.174;2022-10-16T15:51:06;2.80;;;2.57;;
6177;SDS011;3122;48.208;11.174;2022-10-16T15:56:08;1.97;;;1.87;;
6177;SDS011;3122;48.208;11.174;2022-10-16T16:01:10;1.80;;;1.70;;
6177;SDS011;3122;48.208;11.174;2022-10-16T16:06:12;1.90;;;1.80;;
6177;SDS011;3122;48.208;11.174;2022-10-16T16:11:14;14.07;;;10.20;;
6177;SDS011;3122;48.208;11.174;2022-10-16T16:16:16;16.63;;;12.30;;
6177;SDS011;3122;48.208;11.174;2022-10-16T16:21:17;11.40;;;9.60;;
6177;SDS011;3122;48.208;11.174;2022-10-16T16:31:26;3.30;;;3.00;;
6177;SDS011;3122;48.208;11.174;2022-10-16T16:36:27;2.00;;;1.90;;
6177;SDS011;3122;48.208;11.174;2022-10-16T16:41:29;1.90;;;1.73;;
6177;SDS011;3122;48.208;11.174;2022-10-16T16:46:31;4.23;;;1.77;;
6177;SDS011;3122;48.208;11.174;2022-10-16T16:51:32;1.70;;;1.60;;
6177;SDS011;3122;48.208;11.174;2022-10-16T16:56:33;1.70;;;1.60;;
6177;SDS011;3122;48.208;11.174;2022-10-16T17:01:34;4.03;;;1.90;;
6177;SDS011;3122;48.208;11.174;2022-10-16T17:06:35;1.70;;;1.60;;
6177;SDS011;3122;48.208;11.174;2022-10-16T17:11:36;2.20;;;1.93;;
6177;SDS011;3122;48.208;11.174;2022-10-16T17:16:37;1.60;;;1.50;;
6177;SDS011;3122;48.208;11.174;2022-10-16T17:21:40;2.17;;;1.50;;
6177;SDS011;3122;48.208;11.174;2022-10-16T17:26:41;2.10;;;2.00;;
6177;SDS011;3122;48.208;11.174;2022-10-16T17:31:47;3.90;;;2.30;;
6177;SDS011;3122;48.208;11.174;2022-10-16T17:36:49;4.73;;;2.13;;
6177;SDS011;3122;48.208;11.174;2022-10-16T17:41:49;2.30;;;2.03;;
6177;SDS011;3122;48.208;11.174;2022-10-16T17:46:50;2.20;;;2.00;;
6177;SDS011;3122;48.208;11.174;2022-10-16T17:51:52;3.43;;;2.10;;
6177;SDS011;3122;48.208;11.174;2022-10-16T17:56:53;3.70;;;2.40;;
6177;SDS011;3122;48.208;11.174;2022-10-16T18:01:54;3.53;;;2.20;;
6177;SDS011;3122;48.208;11.174;2022-10-16T18:06:54;2.40;;;2.20;;
6177;SDS011;3122;48.208;11.174;2022-10-16T18:11:55;3.73;;;3.13;;
6177;SDS011;3122;48.208;11.174;2022-10-16T18:16:59;7.13;;;5.27;;
6177;SDS011;3122;48.208;11.174;2022-10-16T18:22:00;11.13;;;7.90;;
6177;SDS011;3122;48.208;11.174;2022-10-16T18:27:00;12.50;;;9.20;;
6177;SDS011;3122;48.208;11.174;2022-10-16T18:32:01;15.33;;;11.60;;
6177;SDS011;3122;48.208;11.174;2022-10-16T18:37:02;20.47;;;12.03;;
6177;SDS011;3122;48.208;11.174;2022-10-16T18:42:02;15.03;;;11.70;;
6177;SDS011;3122;48.208;11.174;2022-10-16T18:47:03;14.57;;;12.10;;
6177;SDS011;3122;48.208;11.174;2022-10-16T18:52:03;13.17;;;11.17;;
6177;SDS011;3122;48.208;11.174;2022-10-16T18:57:05;9.03;;;8.10;;
6177;SDS011;3122;48.208;11.174;2022-10-16T19:02:05;11.77;;;6.80;;
6177;SDS011;3122;48.208;11.174;2022-10-16T19:07:06;11.00;;;5.80;;
6177;SDS011;3122;48.208;11.174;2022-10-16T19:12:07;9.73;;;4.27;;
6177;SDS011;3122;48.208;11.174;2022-10-16T19:17:08;3.20;;;2.90;;
6177;SDS011;3122;48.208;11.174;2022-10-16T19:22:09;6.13;;;2.47;;
6177;SDS011;3122;48.208;11.174;2022-10-16T19:27:16;6.40;;;2.87;;
6177;SDS011;3122;48.208;11.174;2022-10-16T19:32:16;3.53;;;2.90;;
6177;SDS011;3122;48.208;11.174;2022-10-16T19:37:17;7.50;;;4.43;;
6177;SDS011;3122;48.208;11.174;2022-10-16T19:42:24;3.90;;;3.23;;
6177;SDS011;3122;48.208;11.174;2022-10-16T19:47:25;8.53;;;3.90;;
6177;SDS011;3122;48.208;11.174;2022-10-16T19:52:25;9.63;;;3.73;;
6177;SDS011;3122;48.208;11.174;2022-10-16T19:57:26;5.30;;;4.27;;
6177;SDS011;3122;48.208;11.174;2022-10-16T20:02:27;3.70;;;3.40;;
6177;SDS011;3122;48.208;11.174;2022-10-16T20:07:27;6.43;;;3.60;;
6177;SDS011;3122;48.208;11.174;2022-10-16T20:12:28;5.10;;;4.33;;
6177;SDS011;3122;48.208;11.174;2022-10-16T20:17:28;5.97;;;5.03;;
6177;SDS011;3122;48.208;11.174;2022-10-16T20:22:29;5.17;;;4.10;;
6177;SDS011;3122;48.208;11.174;2022-10-16T20:27:29;6.53;;;4.50;;
6177;SDS011;3122;48.208;11.174;2022-10-16T20:32:30;4.93;;;4.43;;
6177;SDS011;3122;48.208;11.174;2022-10-16T20:37:31;4.63;;;3.83;;
6177;SDS011;3122;48.208;11.174;2022-10-16T20:42:31;6.00;;;4.27;;
6177;SDS011;3122;48.208;11.174;2022-10-16T20:47:32;4.77;;;3.90;;
6177;SDS011;3122;48.208;11.174;2022-10-16T20:52:33;3.87;;;3.53;;
6177;SDS011;3122;48.208;11.174;2022-10-16T20:57:33;4.37;;;3.97;;
6177;SDS011;3122;48.208;11.174;2022-10-16T21:02:34;5.07;;;4.30;;
6177;SDS011;3122;48.208;11.174;2022-10-16T21:07:35;4.07;;;3.67;;
6177;SDS011;3122;48.208;11.174;2022-10-16T21:12:35;4.60;;;4.20;;
6177;SDS011;3122;48.208;11.174;2022-10-16T21:17:36;4.40;;;4.00;;
6177;SDS011;3122;48.208;11.174;2022-10-16T21:22:36;4.90;;;3.93;;
6177;SDS011;3122;48.208;11.174;2022-10-16T21:27:37;6.33;;;4.10;;
6177;SDS011;3122;48.208;11.174;2022-10-16T21:32:39;6.47;;;3.80;;
6177;SDS011;3122;48.208;11.174;2022-10-16T21:37:39;4.00;;;3.60;;
6177;SDS011;3122;48.208;11.174;2022-10-16T21:42:40;7.70;;;3.83;;
6177;SDS011;3122;48.208;11.174;2022-10-16T21:47:40;7.50;;;3.70;;
6177;SDS011;3122;48.208;11.174;2022-10-16T21:52:41;5.20;;;4.10;;
6177;SDS011;3122;48.208;11.174;2022-10-16T21:57:41;5.73;;;3.40;;
6177;SDS011;3122;48.208;11.174;2022-10-16T22:02:42;4.53;;;3.70;;
6177;SDS011;3122;48.208;11.174;2022-10-16T22:07:43;3.60;;;3.30;;
6177;SDS011;3122;48.208;11.174;2022-10-16T22:12:43;4.43;;;3.17;;
6177;SDS011;3122;48.208;11.174;2022-10-16T22:17:44;5.60;;;3.67;;
6177;SDS011;3122;48.208;11.174;2022-10-16T22:22:44;5.13;;;3.83;;
6177;SDS011;3122;48.208;11.174;2022-10-16T22:27:45;4.97;;;4.40;;
6177;SDS011;3122;48.208;11.174;2022-10-16T22:32:45;7.23;;;4.33;;
6177;SDS011;3122;48.208;11.174;2022-10-16T22:37:46;4.67;;;3.90;;
6177;SDS011;3122;48.208;11.174;2022-10-16T22:42:46;4.17;;;3.77;;
6177;SDS011;3122;48.208;11.174;2022-10-16T22:47:47;6.20;;;5.53;;
6177;SDS011;3122;48.208;11.174;2022-10-16T22:52:48;5.23;;;4.73;;
6177;SDS011;3122;48.208;11.174;2022-10-16T22:57:48;6.40;;;5.13;;
6177;SDS011;3122;48.208;11.174;2022-10-16T23:02:49;11.60;;;8.47;;
6177;SDS011;3122;48.208;11.174;2022-10-16T23:07:49;13.47;;;8.40;;
6177;SDS011;3122;48.208;11.174;2022-10-16T23:12:50;10.53;;;7.93;;
6177;SDS011;3122;48.208;11.174;2022-10-16T23:17:50;9.13;;;6.53;;
6177;SDS011;3122;48.208;11.174;2022-10-16T23:22:51;9.20;;;6.40;;
6177;SDS011;3122;48.208;11.174;2022-10-16T23:27:55;10.40;;;6.67;;
6177;SDS011;3122;48.208;11.174;2022-10-16T23:32:55;9.43;;;6.90;;
6177;SDS011;3122;48.208;11.174;2022-10-16T23:37:56;7.83;;;6.50;;
6177;SDS011;3122;48.208;11.174;2022-10-16T23:42:57;8.07;;;5.80;;
6177;SDS011;3122;48.208;11.174;2022-10-16T23:47:57;8.20;;;5.87;;
6177;SDS011;3122;48.208;11.174;2022-10-16T23:52:58;7.23;;;5.60;;
6177;SDS011;3122;48.208;11.174;2022-10-16T23:57:58;6.50;;;5.37;;
